sensor_id;sensor_type;location;lat;lon;timestamp;temperature;humidity
28614;DHT22;15806;53.548;9.964;2024-02-23T00:01:25;10.50;99.90
28614;DHT22;15806;53.548;9.964;2024-02-23T00:03:06;10.50;99.90
28614;DHT22;15806;53.548;9.964;2024-02-23T00:04:46;10.50;1.00
28614;DHT22;15806;53.548;9.964;2024-02-23T00:06:27;10.40;99.90
28614;DHT22;15806;53.548;9.964;2024-02-23T00:08:07;10.40;1.00
28614;DHT22;15806;53.548;9.964;2024-02-23T00:09:48;10.40;1.00
28614;DHT22;15806;53.548;9.964;2024-02-23T00:11:28;10.40;1.00
28614;DHT22;15806;53.548;9.964;2024-02-23T00:13:09;10.30;99.90
28614;DHT22;15806;53.548;9.964;2024-02-23T00:14:49;10.20;1.00
28614;DHT22;15806;53.548;9.964;2024-02-23T00:16:30;10.10;1.00
28614;DHT22;15806;53.548;9.964;2024-02-23T00:18:11;10.10;1.00
28614;DHT22;15806;53.548;9.964;2024-02-23T00:19:51;10.00;99.90
28614;DHT22;15806;53.548;9.964;2024-02-23T00:21:32;10.10;99.90
28614;DHT22;15806;53.548;9.964;2024-02-23T00:23:12;10.10;99.90
28614;DHT22;15806;53.548;9.964;2024-02-23T00:24:53;10.00;99.90
28614;DHT22;15806;53.548;9.964;2024-02-23T00:26:33;10.10;99.90
28614;DHT22;15806;53.548;9.964;2024-02-23T00:28:14;10.00;1.00
28614;DHT22;15806;53.548;9.964;2024-02-23T00:29:54;10.00;50.80
28614;DHT22;15806;53.548;9.964;2024-02-23T00:31:38;10.00;18.10
28614;DHT22;15806;53.548;9.964;2024-02-23T00:33:18;10.00;1.00
28614;DHT22;15806;53.548;9.964;2024-02-23T00:34:59;10.00;99.90
28614;DHT22;15806;53.548;9.964;2024-02-23T00:36:40;10.00;99.90
28614;DHT22;15806;53.548;9.964;2024-02-23T00:38:21;10.00;1.00
28614;DHT22;15806;53.548;9.964;2024-02-23T00:40:03;10.00;1.00
28614;DHT22;15806;53.548;9.964;2024-02-23T00:41:43;10.00;99.90
28614;DHT22;15806;53.548;9.964;2024-02-23T00:43:24;10.00;99.90
28614;DHT22;15806;53.548;9.964;2024-02-23T00:45:05;10.00;1.00
28614;DHT22;15806;53.548;9.964;2024-02-23T00:46:45;10.00;1.00
28614;DHT22;15806;53.548;9.964;2024-02-23T00:48:26;9.90;1.00
28614;DHT22;15806;53.548;9.964;2024-02-23T00:50:06;9.80;99.90
28614;DHT22;15806;53.548;9.964;2024-02-23T00:51:47;9.70;99.90
28614;DHT22;15806;53.548;9.964;2024-02-23T00:53:28;9.20;1.00
28614;DHT22;15806;53.548;9.964;2024-02-23T00:55:08;8.40;99.90
28614;DHT22;15806;53.548;9.964;2024-02-23T00:56:49;8.20;99.90
28614;DHT22;15806;53.548;9.964;2024-02-23T00:58:30;8.10;99.90
28614;DHT22;15806;53.548;9.964;2024-02-23T01:00:10;7.90;99.90
28614;DHT22;15806;53.548;9.964;2024-02-23T01:01:51;7.80;99.90
28614;DHT22;15806;53.548;9.964;2024-02-23T01:03:32;7.80;99.90
28614;DHT22;15806;53.548;9.964;2024-02-23T01:05:13;7.80;99.90
28614;DHT22;15806;53.548;9.964;2024-02-23T01:06:53;7.70;99.90
28614;DHT22;15806;53.548;9.964;2024-02-23T01:08:34;7.60;99.90
28614;DHT22;15806;53.548;9.964;2024-02-23T01:10:15;7.60;99.90
28614;DHT22;15806;53.548;9.964;2024-02-23T01:11:55;7.50;99.90
28614;DHT22;15806;53.548;9.964;2024-02-23T01:13:36;7.60;99.90
28614;DHT22;15806;53.548;9.964;2024-02-23T01:15:16;7.60;99.90
28614;DHT22;15806;53.548;9.964;2024-02-23T01:16:57;7.60;99.90
28614;DHT22;15806;53.548;9.964;2024-02-23T01:18:37;7.60;99.90
28614;DHT22;15806;53.548;9.964;2024-02-23T01:20:18;7.60;99.90
28614;DHT22;15806;53.548;9.964;2024-02-23T01:21:58;7.60;99.90
28614;DHT22;15806;53.548;9.964;2024-02-23T01:23:39;7.60;99.90
28614;DHT22;15806;53.548;9.964;2024-02-23T01:25:19;7.60;99.90
28614;DHT22;15806;53.548;9.964;2024-02-23T01:27:00;7.60;99.90
28614;DHT22;15806;53.548;9.964;2024-02-23T01:28:40;7.60;99.90
28614;DHT22;15806;53.548;9.964;2024-02-23T01:30:21;7.60;99.90
28614;DHT22;15806;53.548;9.964;2024-02-23T01:32:01;7.70;99.90
28614;DHT22;15806;53.548;9.964;2024-02-23T01:33:42;7.60;99.90
28614;DHT22;15806;53.548;9.964;2024-02-23T01:35:23;7.60;99.90
28614;DHT22;15806;53.548;9.964;2024-02-23T01:37:03;7.60;99.90
28614;DHT22;15806;53.548;9.964;2024-02-23T01:38:44;7.60;99.90
28614;DHT22;15806;53.548;9.964;2024-02-23T01:40:24;7.60;99.90
28614;DHT22;15806;53.548;9.964;2024-02-23T01:42:05;7.60;99.90
28614;DHT22;15806;53.548;9.964;2024-02-23T01:43:45;7.60;99.90
28614;DHT22;15806;53.548;9.964;2024-02-23T01:45:26;7.60;99.90
28614;DHT22;15806;53.548;9.964;2024-02-23T01:47:06;7.50;99.90
28614;DHT22;15806;53.548;9.964;2024-02-23T01:48:47;7.60;99.90
28614;DHT22;15806;53.548;9.964;2024-02-23T01:50:28;7.60;99.90
28614;DHT22;15806;53.548;9.964;2024-02-23T01:52:09;7.50;99.90
28614;DHT22;15806;53.548;9.964;2024-02-23T01:53:50;7.50;99.90
28614;DHT22;15806;53.548;9.964;2024-02-23T01:55:31;7.50;99.90
28614;DHT22;15806;53.548;9.964;2024-02-23T01:57:12;7.50;99.90
28614;DHT22;15806;53.548;9.964;2024-02-23T01:58:54;7.40;99.90
28614;DHT22;15806;53.548;9.964;2024-02-23T02:00:35;7.40;99.90
28614;DHT22;15806;53.548;9.964;2024-02-23T02:02:16;7.40;99.90
28614;DHT22;15806;53.548;9.964;2024-02-23T02:03:57;7.40;99.90
28614;DHT22;15806;53.548;9.964;2024-02-23T02:05:38;7.40;99.90
28614;DHT22;15806;53.548;9.964;2024-02-23T02:07:19;7.30;99.90
28614;DHT22;15806;53.548;9.964;2024-02-23T02:09:00;7.20;99.90
28614;DHT22;15806;53.548;9.964;2024-02-23T02:10:40;7.20;99.90
28614;DHT22;15806;53.548;9.964;2024-02-23T02:12:27;7.20;99.90
28614;DHT22;15806;53.548;9.964;2024-02-23T02:14:08;7.20;99.90
28614;DHT22;15806;53.548;9.964;2024-02-23T02:15:48;7.20;99.90
28614;DHT22;15806;53.548;9.964;2024-02-23T02:17:29;7.20;99.90
28614;DHT22;15806;53.548;9.964;2024-02-23T02:19:10;7.20;99.90
28614;DHT22;15806;53.548;9.964;2024-02-23T02:20:53;7.20;99.90
28614;DHT22;15806;53.548;9.964;2024-02-23T02:22:34;7.10;99.90
28614;DHT22;15806;53.548;9.964;2024-02-23T02:24:15;7.10;99.90
28614;DHT22;15806;53.548;9.964;2024-02-23T02:25:56;7.10;99.90
28614;DHT22;15806;53.548;9.964;2024-02-23T02:27:37;7.00;99.90
28614;DHT22;15806;53.548;9.964;2024-02-23T02:29:17;6.90;99.90
28614;DHT22;15806;53.548;9.964;2024-02-23T02:30:58;6.80;99.90
28614;DHT22;15806;53.548;9.964;2024-02-23T02:32:39;6.80;99.90
28614;DHT22;15806;53.548;9.964;2024-02-23T02:34:19;6.80;99.90
28614;DHT22;15806;53.548;9.964;2024-02-23T02:36:00;6.80;99.90
28614;DHT22;15806;53.548;9.964;2024-02-23T02:37:40;6.80;99.90
28614;DHT22;15806;53.548;9.964;2024-02-23T02:39:21;6.80;99.90
28614;DHT22;15806;53.548;9.964;2024-02-23T02:41:01;6.80;99.90
28614;DHT22;15806;53.548;9.964;2024-02-23T02:42:42;6.80;99.90
28614;DHT22;15806;53.548;9.964;2024-02-23T02:44:22;6.60;99.90
28614;DHT22;15806;53.548;9.964;2024-02-23T02:46:03;6.60;99.90
28614;DHT22;15806;53.548;9.964;2024-02-23T02:47:43;6.50;99.90
28614;DHT22;15806;53.548;9.964;2024-02-23T02:49:24;6.50;99.90
28614;DHT22;15806;53.548;9.964;2024-02-23T02:51:05;6.50;99.90
28614;DHT22;15806;53.548;9.964;2024-02-23T02:52:45;6.50;99.90
28614;DHT22;15806;53.548;9.964;2024-02-23T02:54:26;6.40;99.90
28614;DHT22;15806;53.548;9.964;2024-02-23T02:56:06;6.40;99.90
28614;DHT22;15806;53.548;9.964;2024-02-23T02:57:47;6.40;99.90
28614;DHT22;15806;53.548;9.964;2024-02-23T02:59:27;6.40;99.90
28614;DHT22;15806;53.548;9.964;2024-02-23T03:01:08;6.40;99.90
28614;DHT22;15806;53.548;9.964;2024-02-23T03:02:48;6.50;99.90
28614;DHT22;15806;53.548;9.964;2024-02-23T03:04:29;6.40;99.90
28614;DHT22;15806;53.548;9.964;2024-02-23T03:06:09;6.40;99.90
28614;DHT22;15806;53.548;9.964;2024-02-23T03:07:50;6.40;99.90
28614;DHT22;15806;53.548;9.964;2024-02-23T03:09:30;6.30;99.90
28614;DHT22;15806;53.548;9.964;2024-02-23T03:11:11;6.30;99.90
28614;DHT22;15806;53.548;9.964;2024-02-23T03:12:51;6.30;99.90
28614;DHT22;15806;53.548;9.964;2024-02-23T03:14:32;6.20;99.90
28614;DHT22;15806;53.548;9.964;2024-02-23T03:16:17;6.20;99.90
28614;DHT22;15806;53.548;9.964;2024-02-23T03:17:57;6.30;99.90
28614;DHT22;15806;53.548;9.964;2024-02-23T03:19:38;6.30;99.90
28614;DHT22;15806;53.548;9.964;2024-02-23T03:21:19;6.40;99.90
28614;DHT22;15806;53.548;9.964;2024-02-23T03:22:59;6.40;99.90
28614;DHT22;15806;53.548;9.964;2024-02-23T03:24:40;6.40;99.90
28614;DHT22;15806;53.548;9.964;2024-02-23T03:26:20;6.30;99.90
28614;DHT22;15806;53.548;9.964;2024-02-23T03:28:01;6.40;99.90
28614;DHT22;15806;53.548;9.964;2024-02-23T03:29:41;6.30;99.90
28614;DHT22;15806;53.548;9.964;2024-02-23T03:31:22;6.40;99.90
28614;DHT22;15806;53.548;9.964;2024-02-23T03:33:02;6.40;99.90
28614;DHT22;15806;53.548;9.964;2024-02-23T03:34:43;6.30;99.90
28614;DHT22;15806;53.548;9.964;2024-02-23T03:36:23;6.30;99.90
28614;DHT22;15806;53.548;9.964;2024-02-23T03:38:04;6.30;99.90
28614;DHT22;15806;53.548;9.964;2024-02-23T03:39:44;6.30;99.90
28614;DHT22;15806;53.548;9.964;2024-02-23T03:41:25;6.20;99.90
28614;DHT22;15806;53.548;9.964;2024-02-23T03:43:05;6.20;99.90
28614;DHT22;15806;53.548;9.964;2024-02-23T03:44:46;6.20;99.90
28614;DHT22;15806;53.548;9.964;2024-02-23T03:46:26;6.10;99.90
28614;DHT22;15806;53.548;9.964;2024-02-23T03:48:07;6.10;99.90
28614;DHT22;15806;53.548;9.964;2024-02-23T03:49:48;6.20;99.90
28614;DHT22;15806;53.548;9.964;2024-02-23T03:51:28;6.20;99.90
28614;DHT22;15806;53.548;9.964;2024-02-23T03:53:09;6.20;99.90
28614;DHT22;15806;53.548;9.964;2024-02-23T03:54:49;6.10;99.90
28614;DHT22;15806;53.548;9.964;2024-02-23T03:56:30;6.10;99.90
28614;DHT22;15806;53.548;9.964;2024-02-23T03:58:12;6.10;99.90
28614;DHT22;15806;53.548;9.964;2024-02-23T03:59:53;6.10;99.90
28614;DHT22;15806;53.548;9.964;2024-02-23T04:01:35;6.00;99.90
28614;DHT22;15806;53.548;9.964;2024-02-23T04:03:15;6.00;99.90
28614;DHT22;15806;53.548;9.964;2024-02-23T04:04:56;6.00;99.90
28614;DHT22;15806;53.548;9.964;2024-02-23T04:06:36;6.00;99.90
28614;DHT22;15806;53.548;9.964;2024-02-23T04:08:17;6.00;99.90
28614;DHT22;15806;53.548;9.964;2024-02-23T04:09:57;6.00;99.90
28614;DHT22;15806;53.548;9.964;2024-02-23T04:11:38;6.00;99.90
28614;DHT22;15806;53.548;9.964;2024-02-23T04:13:19;6.00;99.90
28614;DHT22;15806;53.548;9.964;2024-02-23T04:14:59;6.00;99.90
28614;DHT22;15806;53.548;9.964;2024-02-23T04:16:40;6.00;99.90
28614;DHT22;15806;53.548;9.964;2024-02-23T04:18:20;6.00;99.90
28614;DHT22;15806;53.548;9.964;2024-02-23T04:20:06;6.00;99.90
28614;DHT22;15806;53.548;9.964;2024-02-23T04:21:46;6.10;99.90
28614;DHT22;15806;53.548;9.964;2024-02-23T04:23:27;6.10;99.90
28614;DHT22;15806;53.548;9.964;2024-02-23T04:25:08;6.10;99.90
28614;DHT22;15806;53.548;9.964;2024-02-23T04:26:48;6.10;99.90
28614;DHT22;15806;53.548;9.964;2024-02-23T04:28:29;6.10;99.90
28614;DHT22;15806;53.548;9.964;2024-02-23T04:30:10;6.10;99.90
28614;DHT22;15806;53.548;9.964;2024-02-23T04:31:51;6.10;99.90
28614;DHT22;15806;53.548;9.964;2024-02-23T04:33:31;6.10;99.90
28614;DHT22;15806;53.548;9.964;2024-02-23T04:35:12;6.00;99.90
28614;DHT22;15806;53.548;9.964;2024-02-23T04:36:53;6.10;99.90
28614;DHT22;15806;53.548;9.964;2024-02-23T04:38:33;6.10;99.90
28614;DHT22;15806;53.548;9.964;2024-02-23T04:40:14;6.00;99.90
28614;DHT22;15806;53.548;9.964;2024-02-23T04:41:55;6.10;99.90
28614;DHT22;15806;53.548;9.964;2024-02-23T04:43:35;6.00;99.90
28614;DHT22;15806;53.548;9.964;2024-02-23T04:45:16;6.00;99.90
28614;DHT22;15806;53.548;9.964;2024-02-23T04:46:56;6.00;99.90
28614;DHT22;15806;53.548;9.964;2024-02-23T04:48:37;6.00;99.90
28614;DHT22;15806;53.548;9.964;2024-02-23T04:50:17;6.10;99.90
28614;DHT22;15806;53.548;9.964;2024-02-23T04:51:58;6.10;99.90
28614;DHT22;15806;53.548;9.964;2024-02-23T04:53:39;6.10;99.90
28614;DHT22;15806;53.548;9.964;2024-02-23T04:55:19;6.10;99.90
28614;DHT22;15806;53.548;9.964;2024-02-23T04:56:59;6.00;99.90
28614;DHT22;15806;53.548;9.964;2024-02-23T04:58:40;6.00;99.90
28614;DHT22;15806;53.548;9.964;2024-02-23T05:00:21;6.00;99.90
28614;DHT22;15806;53.548;9.964;2024-02-23T05:02:01;6.10;99.90
28614;DHT22;15806;53.548;9.964;2024-02-23T05:03:42;6.00;99.90
28614;DHT22;15806;53.548;9.964;2024-02-23T05:05:22;5.90;99.90
28614;DHT22;15806;53.548;9.964;2024-02-23T05:07:03;6.00;99.90
28614;DHT22;15806;53.548;9.964;2024-02-23T05:08:43;6.00;99.90
28614;DHT22;15806;53.548;9.964;2024-02-23T05:10:24;6.00;99.90
28614;DHT22;15806;53.548;9.964;2024-02-23T05:12:05;5.90;99.90
28614;DHT22;15806;53.548;9.964;2024-02-23T05:13:45;6.00;99.90
28614;DHT22;15806;53.548;9.964;2024-02-23T05:15:26;6.00;99.90
28614;DHT22;15806;53.548;9.964;2024-02-23T05:17:06;6.00;99.90
28614;DHT22;15806;53.548;9.964;2024-02-23T05:18:47;6.00;99.90
28614;DHT22;15806;53.548;9.964;2024-02-23T05:20:27;6.00;99.90
28614;DHT22;15806;53.548;9.964;2024-02-23T05:22:08;6.00;99.90
28614;DHT22;15806;53.548;9.964;2024-02-23T05:23:49;6.00;99.90
28614;DHT22;15806;53.548;9.964;2024-02-23T05:25:29;6.00;99.90
28614;DHT22;15806;53.548;9.964;2024-02-23T05:27:10;6.00;99.90
28614;DHT22;15806;53.548;9.964;2024-02-23T05:28:50;6.00;99.90
28614;DHT22;15806;53.548;9.964;2024-02-23T05:30:31;5.90;99.90
28614;DHT22;15806;53.548;9.964;2024-02-23T05:32:11;5.90;99.90
28614;DHT22;15806;53.548;9.964;2024-02-23T05:33:52;5.90;99.90
28614;DHT22;15806;53.548;9.964;2024-02-23T05:35:32;5.90;99.90
28614;DHT22;15806;53.548;9.964;2024-02-23T05:37:13;5.90;99.90
28614;DHT22;15806;53.548;9.964;2024-02-23T05:38:53;6.00;99.90
28614;DHT22;15806;53.548;9.964;2024-02-23T05:40:34;6.00;99.90
28614;DHT22;15806;53.548;9.964;2024-02-23T05:42:14;6.00;99.90
28614;DHT22;15806;53.548;9.964;2024-02-23T05:43:55;6.00;99.90
28614;DHT22;15806;53.548;9.964;2024-02-23T05:45:35;6.00;99.90
28614;DHT22;15806;53.548;9.964;2024-02-23T05:47:16;6.00;99.90
28614;DHT22;15806;53.548;9.964;2024-02-23T05:48:57;6.00;99.90
28614;DHT22;15806;53.548;9.964;2024-02-23T05:50:38;6.00;99.90
28614;DHT22;15806;53.548;9.964;2024-02-23T05:52:18;6.00;99.90
28614;DHT22;15806;53.548;9.964;2024-02-23T05:53:59;6.00;99.90
28614;DHT22;15806;53.548;9.964;2024-02-23T05:55:39;6.10;99.90
28614;DHT22;15806;53.548;9.964;2024-02-23T05:57:20;6.10;99.90
28614;DHT22;15806;53.548;9.964;2024-02-23T05:59:01;6.10;99.90
28614;DHT22;15806;53.548;9.964;2024-02-23T06:00:41;6.00;99.90
28614;DHT22;15806;53.548;9.964;2024-02-23T06:02:22;6.00;99.90
28614;DHT22;15806;53.548;9.964;2024-02-23T06:04:03;6.00;99.90
28614;DHT22;15806;53.548;9.964;2024-02-23T06:05:43;6.00;99.90
28614;DHT22;15806;53.548;9.964;2024-02-23T06:07:24;6.00;99.90
28614;DHT22;15806;53.548;9.964;2024-02-23T06:09:04;6.00;99.90
28614;DHT22;15806;53.548;9.964;2024-02-23T06:10:45;6.00;99.90
28614;DHT22;15806;53.548;9.964;2024-02-23T06:12:25;6.00;99.90
28614;DHT22;15806;53.548;9.964;2024-02-23T06:14:06;6.00;99.90
28614;DHT22;15806;53.548;9.964;2024-02-23T06:15:46;5.90;99.90
28614;DHT22;15806;53.548;9.964;2024-02-23T06:17:27;6.00;99.90
28614;DHT22;15806;53.548;9.964;2024-02-23T06:19:08;5.90;1.00
28614;DHT22;15806;53.548;9.964;2024-02-23T06:20:51;5.90;99.90
28614;DHT22;15806;53.548;9.964;2024-02-23T06:22:32;5.90;99.90
28614;DHT22;15806;53.548;9.964;2024-02-23T06:24:12;5.90;99.90
28614;DHT22;15806;53.548;9.964;2024-02-23T06:25:53;5.90;99.90
28614;DHT22;15806;53.548;9.964;2024-02-23T06:27:33;5.90;1.00
28614;DHT22;15806;53.548;9.964;2024-02-23T06:29:14;5.90;99.90
28614;DHT22;15806;53.548;9.964;2024-02-23T06:30:54;5.90;1.00
28614;DHT22;15806;53.548;9.964;2024-02-23T06:32:35;5.80;1.00
28614;DHT22;15806;53.548;9.964;2024-02-23T06:34:16;5.80;1.00
28614;DHT22;15806;53.548;9.964;2024-02-23T06:35:56;5.90;1.00
28614;DHT22;15806;53.548;9.964;2024-02-23T06:37:37;5.80;1.00
28614;DHT22;15806;53.548;9.964;2024-02-23T06:39:20;5.80;99.90
28614;DHT22;15806;53.548;9.964;2024-02-23T06:41:01;5.80;98.30
28614;DHT22;15806;53.548;9.964;2024-02-23T06:42:41;5.80;1.00
28614;DHT22;15806;53.548;9.964;2024-02-23T06:44:22;5.80;1.00
28614;DHT22;15806;53.548;9.964;2024-02-23T06:46:09;5.80;1.00
28614;DHT22;15806;53.548;9.964;2024-02-23T06:47:50;5.80;99.90
28614;DHT22;15806;53.548;9.964;2024-02-23T06:49:30;5.80;99.90
28614;DHT22;15806;53.548;9.964;2024-02-23T06:51:11;5.80;99.90
28614;DHT22;15806;53.548;9.964;2024-02-23T06:52:51;5.70;99.90
28614;DHT22;15806;53.548;9.964;2024-02-23T06:54:32;5.70;99.90
28614;DHT22;15806;53.548;9.964;2024-02-23T06:56:12;5.70;99.90
28614;DHT22;15806;53.548;9.964;2024-02-23T06:57:53;5.70;99.90
28614;DHT22;15806;53.548;9.964;2024-02-23T06:59:33;5.70;99.90
28614;DHT22;15806;53.548;9.964;2024-02-23T07:01:16;5.70;99.90
28614;DHT22;15806;53.548;9.964;2024-02-23T07:02:56;5.70;99.90
28614;DHT22;15806;53.548;9.964;2024-02-23T07:04:37;5.70;99.90
28614;DHT22;15806;53.548;9.964;2024-02-23T07:06:17;5.70;99.90
28614;DHT22;15806;53.548;9.964;2024-02-23T07:07:58;5.70;99.90
28614;DHT22;15806;53.548;9.964;2024-02-23T07:09:38;5.70;99.90
28614;DHT22;15806;53.548;9.964;2024-02-23T07:11:19;5.70;99.90
28614;DHT22;15806;53.548;9.964;2024-02-23T07:12:59;5.70;99.90
28614;DHT22;15806;53.548;9.964;2024-02-23T07:14:40;5.80;99.90
28614;DHT22;15806;53.548;9.964;2024-02-23T07:16:21;5.80;99.90
28614;DHT22;15806;53.548;9.964;2024-02-23T07:18:02;5.80;99.90
28614;DHT22;15806;53.548;9.964;2024-02-23T07:19:43;5.80;99.90
28614;DHT22;15806;53.548;9.964;2024-02-23T07:21:23;5.80;99.90
28614;DHT22;15806;53.548;9.964;2024-02-23T07:23:04;5.90;99.90
28614;DHT22;15806;53.548;9.964;2024-02-23T07:24:45;5.90;99.90
28614;DHT22;15806;53.548;9.964;2024-02-23T07:26:26;5.80;99.90
28614;DHT22;15806;53.548;9.964;2024-02-23T07:28:07;5.80;99.90
28614;DHT22;15806;53.548;9.964;2024-02-23T07:29:47;5.90;99.90
28614;DHT22;15806;53.548;9.964;2024-02-23T07:31:28;5.90;99.90
28614;DHT22;15806;53.548;9.964;2024-02-23T07:33:08;5.90;99.90
28614;DHT22;15806;53.548;9.964;2024-02-23T07:34:49;5.90;99.90
28614;DHT22;15806;53.548;9.964;2024-02-23T07:36:29;5.90;99.90
28614;DHT22;15806;53.548;9.964;2024-02-23T07:38:10;5.90;99.90
28614;DHT22;15806;53.548;9.964;2024-02-23T07:39:50;5.90;99.90
28614;DHT22;15806;53.548;9.964;2024-02-23T07:41:31;6.00;99.90
28614;DHT22;15806;53.548;9.964;2024-02-23T07:43:11;6.00;99.90
28614;DHT22;15806;53.548;9.964;2024-02-23T07:44:52;6.00;99.90
28614;DHT22;15806;53.548;9.964;2024-02-23T07:46:32;6.00;99.90
28614;DHT22;15806;53.548;9.964;2024-02-23T07:48:13;6.00;99.90
28614;DHT22;15806;53.548;9.964;2024-02-23T07:49:53;6.10;99.90
28614;DHT22;15806;53.548;9.964;2024-02-23T07:51:34;6.00;99.90
28614;DHT22;15806;53.548;9.964;2024-02-23T07:53:14;6.10;99.90
28614;DHT22;15806;53.548;9.964;2024-02-23T07:54:55;6.10;99.90
28614;DHT22;15806;53.548;9.964;2024-02-23T07:56:35;6.20;99.90
28614;DHT22;15806;53.548;9.964;2024-02-23T07:58:16;6.30;99.90
28614;DHT22;15806;53.548;9.964;2024-02-23T07:59:56;6.30;1.00
28614;DHT22;15806;53.548;9.964;2024-02-23T08:01:37;6.30;99.90
28614;DHT22;15806;53.548;9.964;2024-02-23T08:03:17;6.40;1.00
28614;DHT22;15806;53.548;9.964;2024-02-23T08:04:58;6.40;1.00
28614;DHT22;15806;53.548;9.964;2024-02-23T08:06:39;6.50;1.00
28614;DHT22;15806;53.548;9.964;2024-02-23T08:08:19;6.60;1.00
28614;DHT22;15806;53.548;9.964;2024-02-23T08:10:00;6.50;99.90
28614;DHT22;15806;53.548;9.964;2024-02-23T08:11:41;6.60;1.00
28614;DHT22;15806;53.548;9.964;2024-02-23T08:13:21;6.60;1.00
28614;DHT22;15806;53.548;9.964;2024-02-23T08:15:02;6.70;99.90
28614;DHT22;15806;53.548;9.964;2024-02-23T08:16:42;6.70;99.90
28614;DHT22;15806;53.548;9.964;2024-02-23T08:18:23;6.70;1.00
28614;DHT22;15806;53.548;9.964;2024-02-23T08:20:04;6.80;1.00
28614;DHT22;15806;53.548;9.964;2024-02-23T08:21:44;6.80;99.90
28614;DHT22;15806;53.548;9.964;2024-02-23T08:23:25;6.90;1.00
28614;DHT22;15806;53.548;9.964;2024-02-23T08:25:06;6.80;1.00
28614;DHT22;15806;53.548;9.964;2024-02-23T08:26:46;6.80;53.00
28614;DHT22;15806;53.548;9.964;2024-02-23T08:28:27;6.70;68.50
28614;DHT22;15806;53.548;9.964;2024-02-23T08:30:07;6.80;99.90
28614;DHT22;15806;53.548;9.964;2024-02-23T08:31:48;6.80;99.90
28614;DHT22;15806;53.548;9.964;2024-02-23T08:33:29;6.90;99.90
28614;DHT22;15806;53.548;9.964;2024-02-23T08:35:10;6.90;1.00
28614;DHT22;15806;53.548;9.964;2024-02-23T08:36:50;6.90;99.90
28614;DHT22;15806;53.548;9.964;2024-02-23T08:38:32;7.00;99.90
28614;DHT22;15806;53.548;9.964;2024-02-23T08:40:12;6.90;99.90
28614;DHT22;15806;53.548;9.964;2024-02-23T08:41:53;6.90;99.90
28614;DHT22;15806;53.548;9.964;2024-02-23T08:43:33;6.90;99.90
28614;DHT22;15806;53.548;9.964;2024-02-23T08:45:14;6.90;1.00
28614;DHT22;15806;53.548;9.964;2024-02-23T08:46:54;7.00;99.90
28614;DHT22;15806;53.548;9.964;2024-02-23T08:48:35;6.90;1.00
28614;DHT22;15806;53.548;9.964;2024-02-23T08:50:16;6.90;1.00
28614;DHT22;15806;53.548;9.964;2024-02-23T08:51:56;6.90;1.00
28614;DHT22;15806;53.548;9.964;2024-02-23T08:53:37;7.00;1.00
28614;DHT22;15806;53.548;9.964;2024-02-23T08:55:17;7.00;1.00
28614;DHT22;15806;53.548;9.964;2024-02-23T08:56:58;7.10;1.00
28614;DHT22;15806;53.548;9.964;2024-02-23T08:58:38;7.10;1.00
28614;DHT22;15806;53.548;9.964;2024-02-23T09:00:19;7.00;1.00
28614;DHT22;15806;53.548;9.964;2024-02-23T09:01:59;7.00;99.90
28614;DHT22;15806;53.548;9.964;2024-02-23T09:03:40;7.00;99.90
28614;DHT22;15806;53.548;9.964;2024-02-23T09:05:20;7.00;99.90
28614;DHT22;15806;53.548;9.964;2024-02-23T09:07:01;7.00;99.90
28614;DHT22;15806;53.548;9.964;2024-02-23T09:08:42;7.10;99.90
28614;DHT22;15806;53.548;9.964;2024-02-23T09:10:22;7.00;99.90
28614;DHT22;15806;53.548;9.964;2024-02-23T09:12:03;7.00;67.20
28614;DHT22;15806;53.548;9.964;2024-02-23T09:13:43;7.00;99.90
28614;DHT22;15806;53.548;9.964;2024-02-23T09:15:24;7.00;99.90
28614;DHT22;15806;53.548;9.964;2024-02-23T09:17:05;7.10;99.90
28614;DHT22;15806;53.548;9.964;2024-02-23T09:18:45;7.10;99.90
28614;DHT22;15806;53.548;9.964;2024-02-23T09:20:26;7.10;99.90
28614;DHT22;15806;53.548;9.964;2024-02-23T09:22:06;7.10;99.90
28614;DHT22;15806;53.548;9.964;2024-02-23T09:23:47;7.10;99.90
28614;DHT22;15806;53.548;9.964;2024-02-23T09:25:27;7.20;99.90
28614;DHT22;15806;53.548;9.964;2024-02-23T09:27:08;7.10;99.90
28614;DHT22;15806;53.548;9.964;2024-02-23T09:28:48;7.10;1.00
28614;DHT22;15806;53.548;9.964;2024-02-23T09:30:29;7.20;7.30
28614;DHT22;15806;53.548;9.964;2024-02-23T09:32:09;7.10;1.00
28614;DHT22;15806;53.548;9.964;2024-02-23T09:33:50;7.10;1.00
28614;DHT22;15806;53.548;9.964;2024-02-23T09:35:30;7.20;1.00
28614;DHT22;15806;53.548;9.964;2024-02-23T09:37:11;7.20;1.00
28614;DHT22;15806;53.548;9.964;2024-02-23T09:38:51;7.30;1.00
28614;DHT22;15806;53.548;9.964;2024-02-23T09:40:32;7.30;1.00
28614;DHT22;15806;53.548;9.964;2024-02-23T09:42:12;7.30;25.30
28614;DHT22;15806;53.548;9.964;2024-02-23T09:43:58;7.30;10.80
28614;DHT22;15806;53.548;9.964;2024-02-23T09:45:38;7.40;1.00
28614;DHT22;15806;53.548;9.964;2024-02-23T09:47:19;7.40;99.90
28614;DHT22;15806;53.548;9.964;2024-02-23T09:49:02;7.40;99.90
28614;DHT22;15806;53.548;9.964;2024-02-23T09:50:44;7.30;99.90
28614;DHT22;15806;53.548;9.964;2024-02-23T09:52:26;7.40;99.90
28614;DHT22;15806;53.548;9.964;2024-02-23T09:54:06;7.50;99.90
28614;DHT22;15806;53.548;9.964;2024-02-23T09:55:49;7.50;99.90
28614;DHT22;15806;53.548;9.964;2024-02-23T09:57:30;7.50;1.00
28614;DHT22;15806;53.548;9.964;2024-02-23T09:59:11;7.50;1.00
28614;DHT22;15806;53.548;9.964;2024-02-23T10:00:52;7.60;1.00
28614;DHT22;15806;53.548;9.964;2024-02-23T10:02:32;7.40;99.90
28614;DHT22;15806;53.548;9.964;2024-02-23T10:04:13;7.50;99.90
28614;DHT22;15806;53.548;9.964;2024-02-23T10:05:54;7.60;99.90
28614;DHT22;15806;53.548;9.964;2024-02-23T10:07:35;7.60;99.90
28614;DHT22;15806;53.548;9.964;2024-02-23T10:09:15;7.60;99.90
28614;DHT22;15806;53.548;9.964;2024-02-23T10:10:56;7.60;99.90
28614;DHT22;15806;53.548;9.964;2024-02-23T10:12:37;7.60;99.90
28614;DHT22;15806;53.548;9.964;2024-02-23T10:14:17;7.70;99.90
28614;DHT22;15806;53.548;9.964;2024-02-23T10:15:58;7.60;99.90
28614;DHT22;15806;53.548;9.964;2024-02-23T10:17:38;7.50;99.90
28614;DHT22;15806;53.548;9.964;2024-02-23T10:19:22;7.60;1.00
28614;DHT22;15806;53.548;9.964;2024-02-23T10:21:03;7.70;54.20
28614;DHT22;15806;53.548;9.964;2024-02-23T10:22:45;7.70;1.00
28614;DHT22;15806;53.548;9.964;2024-02-23T10:24:26;7.70;19.50
28614;DHT22;15806;53.548;9.964;2024-02-23T10:26:07;7.60;1.00
28614;DHT22;15806;53.548;9.964;2024-02-23T10:27:47;7.60;1.00
28614;DHT22;15806;53.548;9.964;2024-02-23T10:29:28;7.70;1.00
28614;DHT22;15806;53.548;9.964;2024-02-23T10:31:09;7.70;1.00
28614;DHT22;15806;53.548;9.964;2024-02-23T10:32:51;7.80;1.00
28614;DHT22;15806;53.548;9.964;2024-02-23T10:34:34;7.90;1.00
28614;DHT22;15806;53.548;9.964;2024-02-23T10:36:18;7.90;1.00
28614;DHT22;15806;53.548;9.964;2024-02-23T10:37:58;8.00;1.00
28614;DHT22;15806;53.548;9.964;2024-02-23T10:39:39;8.00;1.00
28614;DHT22;15806;53.548;9.964;2024-02-23T10:41:20;7.90;1.00
28614;DHT22;15806;53.548;9.964;2024-02-23T10:43:02;7.90;1.00
28614;DHT22;15806;53.548;9.964;2024-02-23T10:44:43;8.00;1.00
28614;DHT22;15806;53.548;9.964;2024-02-23T10:46:23;8.00;1.00
28614;DHT22;15806;53.548;9.964;2024-02-23T10:48:08;8.00;99.90